Time,TemperatureF,DewpointF,PressureIn,WindDirection,WindDirectionDegrees,WindSpeedMPH,WindSpeedGustMPH,Humidity,HourlyPrecipIn,Conditions,Clouds,dailyrainin,SoftwareType,DateUTC
2013-02-25 00:02:00,34.0,30.0,29.94,NNE,20,14.0,20.0,86,-99.99,,,-99.99,,2013-02-25 06:02:00,
2013-02-25 00:11:00,34.0,30.0,29.94,NNE,20,12.0,-999.0,86,-99.99,,,-99.99,,2013-02-25 06:11:00,
2013-02-25 00:21:00,34.0,30.0,29.94,NNE,20,14.0,-999.0,86,-99.99,,,-99.99,,2013-02-25 06:21:00,
2013-02-25 00:31:00,34.0,30.0,29.94,North,10,15.0,-999.0,86,-99.99,,,-99.99,,2013-02-25 06:31:00,
2013-02-25 00:41:00,34.0,30.0,29.93,North,10,17.0,21.0,86,-99.99,,,-99.99,,2013-02-25 06:41:00,
2013-02-25 00:52:00,34.0,30.0,29.94,North,10,15.0,-999.0,86,-99.99,,,-99.99,,2013-02-25 06:52:00,
2013-02-25 01:01:00,34.0,30.0,29.94,North,10,15.0,-999.0,86,-99.99,,,-99.99,,2013-02-25 07:01:00,
2013-02-25 01:11:00,34.0,30.0,29.94,North,360,16.0,-999.0,86,-99.99,,,-99.99,,2013-02-25 07:11:00,
2013-02-25 01:21:00,34.0,30.0,29.94,North,10,14.0,-999.0,86,-99.99,,,-99.99,,2013-02-25 07:21:00,
2013-02-25 01:31:00,34.0,30.0,29.94,North,10,14.0,-999.0,86,-99.99,,,-99.99,,2013-02-25 07:31:00,
2013-02-25 01:41:00,34.0,30.0,29.95,North,10,13.0,-999.0,86,-99.99,,,-99.99,,2013-02-25 07:41:00,
2013-02-25 01:52:00,34.0,30.0,29.95,North,10,13.0,-999.0,86,-99.99,,,-99.99,,2013-02-25 07:52:00,
2013-02-25 02:01:00,34.0,30.0,29.95,North,10,13.0,-999.0,86,-99.99,,,-99.99,,2013-02-25 08:01:00,
2013-02-25 02:11:00,34.0,30.0,29.95,North,10,14.0,21.0,86,-99.99,,,-99.99,,2013-02-25 08:11:00,
2013-02-25 02:21:00,32.0,30.0,29.95,North,360,15.0,22.0,92,-99.99,,,-99.99,,2013-02-25 08:21:00,
2013-02-25 02:31:00,32.0,30.0,29.94,North,10,16.0,-999.0,92,-99.99,,,-99.99,,2013-02-25 08:31:00,
2013-02-25 02:41:00,32.0,30.0,29.94,North,10,17.0,-999.0,92,-99.99,,,-99.99,,2013-02-25 08:41:00,
2013-02-25 02:52:00,32.0,30.0,29.94,North,10,17.0,-999.0,92,-99.99,,,-99.99,,2013-02-25 08:52:00,
2013-02-25 03:01:00,32.0,30.0,29.94,North,10,17.0,-999.0,92,-99.99,,,-99.99,,2013-02-25 09:01:00,
2013-02-25 03:12:00,32.0,30.0,29.94,NNE,20,16.0,21.0,92,-99.99,,,-99.99,,2013-02-25 09:12:00,
2013-02-25 03:21:00,34.0,30.0,29.94,North,10,13.0,21.0,86,-99.99,,,-99.99,,2013-02-25 09:21:00,
2013-02-25 03:31:00,34.0,30.0,29.94,North,10,13.0,21.0,86,-99.99,,,-99.99,,2013-02-25 09:31:00,
2013-02-25 03:41:00,34.0,30.0,29.94,North,10,13.0,21.0,86,-99.99,,,-99.99,,2013-02-25 09:41:00,
2013-02-25 03:52:00,34.0,30.0,29.94,North,10,13.0,21.0,86,-99.99,,,-99.99,,2013-02-25 09:52:00,
2013-02-25 04:01:00,34.0,30.0,29.94,North,10,13.0,21.0,86,-99.99,,,-99.99,,2013-02-25 10:01:00,
2013-02-25 18:22:00,36.0,28.0,29.81,North,360,20.0,28.0,74,-99.99,,,-99.99,,2013-02-26 00:22:00,
2013-02-25 18:32:00,36.0,28.0,29.81,North,360,20.0,28.0,74,-99.99,,,-99.99,,2013-02-26 00:32:00,
2013-02-25 18:42:00,36.0,28.0,29.81,North,360,20.0,28.0,74,-99.99,,,-99.99,,2013-02-26 00:42:00,
2013-02-25 18:52:00,34.0,28.0,29.80,North,360,15.0,24.0,80,-99.99,,,-99.99,,2013-02-26 00:52:00,
2013-02-25 19:02:00,34.0,28.0,29.80,North,360,15.0,24.0,80,-99.99,,,-99.99,,2013-02-26 01:02:00,
2013-02-25 19:11:00,34.0,28.0,29.80,North,360,15.0,24.0,80,-99.99,,,-99.99,,2013-02-26 01:11:00,
2013-02-25 19:21:00,34.0,28.0,29.80,North,360,22.0,30.0,80,-99.99,,,-99.99,,2013-02-26 01:21:00,
2013-02-25 19:31:00,34.0,28.0,29.78,North,360,22.0,30.0,80,-99.99,,,-99.99,,2013-02-26 01:31:00,
2013-02-25 19:42:00,34.0,28.0,29.78,North,360,22.0,30.0,80,-99.99,,,-99.99,,2013-02-26 01:42:00,
2013-02-25 19:52:00,34.0,28.0,29.76,North,350,23.0,30.0,80,-99.99,,,-99.99,,2013-02-26 01:52:00,
2013-02-25 20:01:00,34.0,28.0,29.76,North,350,23.0,30.0,80,-99.99,,,-99.99,,2013-02-26 02:01:00,
2013-02-25 20:11:00,34.0,28.0,29.76,North,350,23.0,30.0,80,-99.99,,,-99.99,,2013-02-26 02:11:00,
2013-02-25 20:21:00,34.0,28.0,29.78,North,360,20.0,29.0,80,-99.99,,,-99.99,,2013-02-26 02:21:00,
2013-02-25 20:32:00,34.0,28.0,29.80,North,360,15.0,27.0,80,-99.99,,,-99.99,,2013-02-26 02:32:00,
2013-02-25 20:42:00,34.0,28.0,29.80,North,360,15.0,27.0,80,-99.99,,,-99.99,,2013-02-26 02:42:00,
2013-02-25 20:52:00,34.0,28.0,29.80,North,360,20.0,25.0,80,-99.99,,,-99.99,,2013-02-26 02:52:00,
2013-02-25 21:02:00,34.0,28.0,29.80,North,360,20.0,25.0,80,-99.99,,,-99.99,,2013-02-26 03:02:00,
2013-02-25 21:11:00,34.0,28.0,29.80,North,360,20.0,25.0,80,-99.99,,,-99.99,,2013-02-26 03:11:00,
2013-02-25 21:21:00,34.0,28.0,29.83,North,360,12.0,18.0,80,-99.99,,,-99.99,,2013-02-26 03:21:00,
2013-02-25 21:32:00,34.0,28.0,29.83,North,360,15.0,-999.0,80,-99.99,,,-99.99,,2013-02-26 03:32:00,
2013-02-25 21:42:00,34.0,28.0,29.83,North,360,15.0,-999.0,80,-99.99,,,-99.99,,2013-02-26 03:42:00,
2013-02-25 21:52:00,34.0,28.0,29.83,North,360,16.0,-999.0,80,-99.99,,,-99.99,,2013-02-26 03:52:00,
2013-02-25 22:01:00,34.0,28.0,29.83,North,360,16.0,-999.0,80,-99.99,,,-99.99,,2013-02-26 04:01:00,
2013-02-25 22:11:00,34.0,28.0,29.83,North,360,16.0,-999.0,80,-99.99,,,-99.99,,2013-02-26 04:11:00,
2013-02-25 22:21:00,32.0,28.0,29.83,North,350,18.0,25.0,86,-99.99,,,-99.99,,2013-02-26 04:21:00,
2013-02-25 22:32:00,32.0,28.0,29.83,North,350,14.0,22.0,86,-99.99,,,-99.99,,2013-02-26 04:32:00,
2013-02-25 22:42:00,32.0,28.0,29.83,North,350,14.0,22.0,86,-99.99,,,-99.99,,2013-02-26 04:42:00,
2013-02-25 22:52:00,32.0,28.0,29.83,North,350,14.0,22.0,86,-99.99,,,-99.99,,2013-02-26 04:52:00,
2013-02-25 23:01:00,32.0,28.0,29.83,North,350,14.0,22.0,86,-99.99,,,-99.99,,2013-02-26 05:01:00,
2013-02-25 23:12:00,32.0,28.0,29.83,North,350,14.0,22.0,86,-99.99,,,-99.99,,2013-02-26 05:12:00,
2013-02-25 23:21:00,32.0,27.0,29.81,North,350,17.0,-999.0,80,-99.99,,,-99.99,,2013-02-26 05:21:00,
2013-02-25 23:32:00,32.0,27.0,29.82,North,350,17.0,21.0,80,-99.99,,,-99.99,,2013-02-26 05:32:00,
2013-02-25 23:43:00,32.0,27.0,29.82,North,350,17.0,21.0,80,-99.99,,,-99.99,,2013-02-26 05:43:00,
2013-02-25 23:52:00,32.0,27.0,29.83,North,10,15.0,-999.0,80,-99.99,,,-99.99,,2013-02-26 05:52:00,